Aviation Digital Data Service (ADDS)

Output produced by METARs form (0611 UTC 25 June 2018)
found at http://www.aviationweather.gov/adds/metars/
 
EGYP 250550Z 19009KT 9999 BKN029 M01/M06 Q0992 BLU
TAF EGYP 250420Z 2506/2524 20010KT 9999 BKN030 
     PROB30 
     TEMPO 2506/2524 4000 -SHSN SCT020